»·PEaware :: N1224Y KPSP-KRNM

N1224Y :: KPSP-KRNM

FLIGHT INFORMATION

Flight Status: Arrived
Operator: Privately registered:
United States
More flights under this callsign
Pilot: Anonymous 20135 (20135)
Aircraft: CESSNA 172 SKYHAWK
(C172)
More flights by this aircraft type
Origin: KPSP Palm Springs Intl
United States
Destination: KRNM Ramona
United States
More flights between these airports :: More routes between these airports
Route: +
File this flight plan on PilotEdge
Remarks:
Altitude:
(Current/Filed)
0ft
Speed:
(Current/Filed)
0kts
Departed: 14-Jan-20 12:16 PM
Arrived: 14-Jan-20 12:56 PM
Distance/Time
Traveled:
52nm/0:40
Distance/Time
To Go:
Arrived

Flight Plot

Page will automatically refresh every two minutes.


Map Options




Map Legend


Flown Route
Filed Route
Departure Airport
Arrival Airport
Navaid (VOR, NDB)
Fix

Horizontal Profiles

Position Reports

Time Latitude Longitude Heading Altitude Ground
Speed
14-Jan-20 12:04 33.821130 -116.506817 98 480ft 0kts
14-Jan-20 12:05 33.821130 -116.506816 98 480ft 0kts
14-Jan-20 12:06 33.821129 -116.506816 98 480ft 0kts
14-Jan-20 12:07 33.821129 -116.506816 98 480ft 0kts
14-Jan-20 12:08 33.821129 -116.506815 98 480ft 0kts
14-Jan-20 12:09 33.818974 -116.505479 152 480ft 8kts
14-Jan-20 12:10 33.818762 -116.500280 98 480ft 14kts
14-Jan-20 12:11 33.817353 -116.498315 58 480ft 0kts
14-Jan-20 12:12 33.817353 -116.498314 58 480ft 0kts
14-Jan-20 12:13 33.817353 -116.498314 58 480ft 0kts
14-Jan-20 12:14 33.818148 -116.497492 336 480ft 8kts
14-Jan-20 12:15 33.832282 -116.509704 324 893ft 81kts
14-Jan-20 12:16 33.848938 -116.528117 305 1683ft 82kts
14-Jan-20 12:17 33.850213 -116.549530 192 3116ft 94kts
14-Jan-20 12:18 33.826046 -116.548335 167 3788ft 87kts
14-Jan-20 12:19 33.803063 -116.537914 154 4335ft 89kts
14-Jan-20 12:20 33.781282 -116.521410 138 4808ft 95kts
14-Jan-20 12:21 33.759642 -116.502646 148 5295ft 96kts
14-Jan-20 12:22 33.735767 -116.486901 153 5749ft 100kts
14-Jan-20 12:23 33.710748 -116.476234 183 6196ft 93kts
14-Jan-20 12:24 33.684681 -116.475496 187 6622ft 92kts
14-Jan-20 12:25 33.659489 -116.473751 189 7124ft 91kts
14-Jan-20 12:26 33.634986 -116.475666 192 8219ft 92kts
14-Jan-20 12:27 33.609984 -116.477714 200 8472ft 88kts
14-Jan-20 12:28 33.584941 -116.484152 208 8485ft 90kts
14-Jan-20 12:29 33.561733 -116.495600 217 8524ft 88kts
14-Jan-20 12:30 33.541243 -116.511433 226 8577ft 90kts
14-Jan-20 12:31 33.522065 -116.531053 232 8543ft 88kts
14-Jan-20 12:32 33.505732 -116.553222 236 8504ft 88kts
14-Jan-20 12:33 33.489709 -116.575310 231 8487ft 89kts
14-Jan-20 12:34 33.471691 -116.595748 230 8466ft 89kts
14-Jan-20 12:35 33.454993 -116.616782 237 8479ft 86kts
14-Jan-20 12:36 33.436685 -116.636401 228 8472ft 89kts
14-Jan-20 12:37 33.418389 -116.656150 232 8467ft 88kts
14-Jan-20 12:38 33.400060 -116.675937 231 8462ft 88kts
14-Jan-20 12:39 33.380026 -116.693931 224 8360ft 90kts
14-Jan-20 12:40 33.356039 -116.706150 210 8288ft 95kts
14-Jan-20 12:41 33.331530 -116.717504 204 8174ft 96kts
14-Jan-20 12:42 33.305121 -116.723933 205 7929ft 96kts
14-Jan-20 12:43 33.278671 -116.730424 198 7656ft 98kts
14-Jan-20 12:44 33.252055 -116.735976 197 7399ft 98kts
14-Jan-20 12:45 33.224515 -116.739769 200 7103ft 98kts
14-Jan-20 12:46 33.197688 -116.747787 209 6767ft 97kts
14-Jan-20 12:47 33.172434 -116.759537 214 6474ft 97kts
14-Jan-20 12:48 33.150318 -116.778325 231 5969ft 100kts
14-Jan-20 12:49 33.132662 -116.804020 236 5513ft 95kts
14-Jan-20 12:50 33.115737 -116.829389 238 5112ft 99kts
14-Jan-20 12:51 33.093282 -116.849024 206 4320ft 103kts
14-Jan-20 12:52 33.068168 -116.859637 207 3318ft 88kts
14-Jan-20 12:53 33.047302 -116.871644 216 2250ft 76kts
14-Jan-20 12:54 33.035788 -116.893207 274 1803ft 83kts
14-Jan-20 12:55 33.039135 -116.912390 354 1396ft 15kts
14-Jan-20 12:56 33.039298 -116.912395 358 1396ft 0kts
14-Jan-20 12:57 33.039650 -116.911406 46 1396ft 0kts
14-Jan-20 12:58 33.039650 -116.911406 46 1396ft 0kts

Navigation Log

Ident Type
Flight plan parsing failed, navigation log unavailable